Friday, October 19, 2018, 7:22 AM EDT
Back to Local

KCXY, Harrisburg Capital City

Location: New Cumberland, PA, United States Lat: 40.217
Local Time: 7:22 AM EDT (11:22 GMT) Lon: -76.85
Time Zone: US/Eastern Elev: 347 ft

Show me the last for .
Show Coded

Time T Td Feel RH Dir Speed Gust Alt SLP Vis Weather Sky Remarks
2018-10-19 06:56 37 32 33 81 250° 5 - 30.35 30.35 10 CLR None
2018-10-19 05:56 37 31 34 78 260° 3 - 30.35 30.35 10 CLR None
2018-10-19 04:56 36 31 32 81 230° 5 - 30.35 30.35 10 CLR None
2018-10-19 03:56 36 32 - 85 - Calm - 30.35 30.35 10 CLR None
2018-10-19 02:56 37 33 - 85 - Calm - 30.36 30.37 10 CLR None
2018-10-19 01:56 39 33 - 79 - Calm - 30.36 30.37 10 CLR 6-hr Min Temp (2am): 37.0°F
6-hr Max Temp (2am): 46.0°F
2018-10-19 00:56 39 34 - 81 - Calm - 30.36 30.37 10 CLR 24-hr Min Temp (1am): 37.9°F
24-hr Max Temp (1am): 55.0°F
2018-10-18 23:56 39 34 37 81 210° 3 - 30.37 30.38 10 CLR None
2018-10-18 22:56 41 34 - 75 - Calm - 30.38 30.39 10 CLR None
2018-10-18 21:56 43 33 39 67 240° 7 - 30.37 30.38 10 CLR None
2018-10-18 20:56 43 34 40 70 250° 5 - 30.37 30.38 10 CLR None
2018-10-18 19:56 44 34 42 67 270° 5 - 30.37 30.38 10 CLR 6-hr Min Temp (8pm): 44.1°F
6-hr Max Temp (8pm): 55.0°F
2018-10-18 18:56 49 30 47 47 300° 6 - 30.37 30.38 10 CLR None
2018-10-18 17:56 52 27 - 37 300° 9 - 30.37 30.38 10 CLR None
2018-10-18 16:56 54 26 - 33 290° 13 - 30.37 30.37 10 CLR None
2018-10-18 15:56 55 26 - 32 320° 13 17 30.38 30.38 10 CLR None
2018-10-18 14:56 53 27 - 36 280° 9 - 30.39 30.40 10 FEW065 None
2018-10-18 13:56 52 25 - 34 290° 10 20 30.40 30.41 10 CLR 6-hr Min Temp (2pm): 46.0°F
6-hr Max Temp (2pm): 53.1°F
2018-10-18 12:56 51 26 - 37 360° 7 - 30.42 30.42 10 FEW050 None
2018-10-18 11:56 49 24 45 37 340° 8 - 30.43 30.44 10 FEW050 None
2018-10-18 10:56 48 22 41 35 340° 10 18 30.43 30.44 10 SCT061 None
2018-10-18 09:56 48 24 41 38 310° 12 18 30.42 30.43 10 SCT050 None
2018-10-18 08:56 47 25 39 41 340° 17 24 30.40 30.40 10 SCT050 None
2018-10-18 07:56 46 27 38 47 320° 14 21 30.37 30.37 10 BKN050 6-hr Min Temp (8am): 43.0°F
6-hr Max Temp (8am): 48.0°F

Support USWX by starting your Amazon purchase here.